College Crest, Oregon
Current Conditions -  °F | °C
As of 6:54 AM on Friday 31 Oct 2014 (Local Time) from KEUG Reporting Station
Overcast Overcast  
Wind Chill: 51°   Ceiling: 8000
Heat Index: 51°   Visibility: 10mi
Dew Point: 48°   Wind: 9mph
Humidity: 89%   Direction: 170°S
Pressure: 29.83"   Gusts: NA
Location:  44.0685°N, 123.082°W
Report Text: KEUG 311354Z 17008KT 10SM OVC080 11/09 A2983 RMK AO2 PRESRR SLP099 T01060089
Loading
Personal Weather Stations






























Interactive Weather Map
Tropical Storm Tracking
New forecast layout! Learn more

10-Day Weather Forecast

Advertisements
Track Severe Weather on mobile